Time;durP1;ratioP1;P1;durP2;ratioP2;P2;SDS_P1;SDS_P2;PMS_P1;PMS_P2;Temp;Humidity;BMP_temperature;BMP_pressure;BME280_temperature;BME280_humidity;BME280_pressure;Samples;Min_cycle;Max_cycle;Signal;HPM_P1;HPM_P2
2022/04/25 00:00:14;;;;;;;6.90;4.10;;;;;;;6.94;81.23;100136.22;104915;1275;61375;-74
2022/04/25 00:02:41;;;;;;;4.90;2.60;;;;;;;6.94;81.05;100142.58;104906;1276;61234;-74
2022/04/25 00:05:08;;;;;;;6.80;3.20;;;;;;;6.93;81.01;100141.79;104984;1276;61927;-70
2022/04/25 00:07:34;;;;;;;8.10;2.80;;;;;;;6.93;80.97;100142.29;104935;1276;72669;-70
2022/04/25 00:10:01;;;;;;;8.30;3.70;;;;;;;6.92;81.51;100140.84;105209;1273;61332;-72
2022/04/25 00:12:28;;;;;;;7.90;2.80;;;;;;;6.90;81.47;100143.86;104981;1276;74030;-70
2022/04/25 00:14:55;;;;;;;7.20;3.40;;;;;;;6.89;81.85;100139.98;105082;1274;62646;-72
2022/04/25 00:17:21;;;;;;;5.00;2.40;;;;;;;6.89;81.31;100145.41;104933;1276;62487;-72
2022/04/25 00:19:48;;;;;;;6.40;3.70;;;;;;;6.89;81.54;100141.56;104803;1275;76255;-73
2022/04/25 00:22:15;;;;;;;5.50;3.30;;;;;;;6.89;81.67;100136.95;104901;1275;72807;-72
2022/04/25 00:24:44;;;;;;;7.70;3.60;;;;;;;6.87;82.42;100141.09;104908;1274;73030;-73
2022/04/25 00:27:12;;;;;;;7.80;3.10;;;;;;;6.85;81.91;100145.00;105008;1274;61450;-72
2022/04/25 00:29:39;;;;;;;3.60;1.80;;;;;;;6.84;82.04;100146.44;105109;1274;61249;-71
2022/04/25 00:32:08;;;;;;;8.60;3.30;;;;;;;6.82;82.56;100146.05;104919;1276;75918;-70
2022/04/25 00:34:36;;;;;;;5.50;3.30;;;;;;;6.80;82.58;100152.04;105074;1276;72387;-71
2022/04/25 00:37:04;;;;;;;6.40;3.10;;;;;;;6.80;82.26;100152.73;104933;1275;72903;-72
2022/04/25 00:39:31;;;;;;;8.30;2.90;;;;;;;6.81;82.14;100158.55;105025;1276;61226;-71
2022/04/25 00:41:57;;;;;;;7.00;3.00;;;;;;;6.82;82.42;100157.80;104942;1274;61170;-73
2022/04/25 00:44:24;;;;;;;7.00;3.30;;;;;;;6.82;82.38;100156.33;105043;1274;75126;-72
2022/04/25 00:46:54;;;;;;;8.60;3.40;;;;;;;6.81;82.43;100152.04;104945;1274;72748;-72
2022/04/25 00:49:23;;;;;;;8.10;3.90;;;;;;;6.81;82.37;100154.54;105280;1274;73965;-72
2022/04/25 00:51:51;;;;;;;5.10;3.30;;;;;;;6.81;82.24;100152.77;104966;1275;62254;-73
2022/04/25 00:54:20;;;;;;;7.70;3.00;;;;;;;6.82;82.65;100154.11;105189;1274;61286;-73
2022/04/25 00:56:48;;;;;;;10.30;3.70;;;;;;;6.81;82.79;100155.59;105050;1274;76094;-72
2022/04/25 00:59:18;;;;;;;5.50;2.70;;;;;;;6.80;82.82;100153.45;104910;1276;72428;-73
2022/04/25 01:01:45;;;;;;;7.20;3.30;;;;;;;6.78;82.95;100154.54;104943;1274;74079;-72
2022/04/25 01:04:13;;;;;;;7.30;3.90;;;;;;;6.77;83.19;100152.20;105108;1276;62332;-74
2022/04/25 01:06:40;;;;;;;4.70;2.70;;;;;;;6.75;83.15;100157.14;104999;1276;61373;-73
2022/04/25 01:09:07;;;;;;;7.60;3.10;;;;;;;6.74;83.42;100155.45;104884;1276;76143;-73
2022/04/25 01:11:34;;;;;;;9.50;3.80;;;;;;;6.73;83.44;100157.52;104874;1276;71205;-73
2022/04/25 01:14:15;;;;;;;4.60;2.40;;;;;;;6.72;83.70;100162.52;104919;1276;73004;-73
2022/04/25 01:16:44;;;;;;;5.40;3.30;;;;;;;6.70;83.96;100162.37;104965;1276;61322;-72
2022/04/25 01:19:11;;;;;;;7.10;3.40;;;;;;;6.68;84.97;100159.30;104901;1276;61193;-73
2022/04/25 01:21:52;;;;;;;7.90;3.60;;;;;;;6.65;85.01;100165.06;105063;1274;76079;-73
2022/04/25 01:27:17;;;;;;;7.70;3.30;;;;;;;6.63;84.61;100157.91;104908;1276;72982;-71
2022/04/25 01:29:49;;;;;;;7.50;3.00;;;;;;;6.62;84.86;100164.96;104856;1276;62528;-70
2022/04/25 01:32:17;;;;;;;5.90;3.10;;;;;;;6.62;85.18;100164.59;104954;1276;61850;-72
2022/04/25 01:34:44;;;;;;;7.50;4.30;;;;;;;6.60;85.84;100163.61;104903;1276;76337;-71
2022/04/25 01:37:16;;;;;;;7.30;3.30;;;;;;;6.58;85.25;100165.06;104945;1276;71826;-71
2022/04/25 01:39:47;;;;;;;8.90;3.80;;;;;;;6.58;85.29;100164.00;104960;1276;72949;-74
2022/04/25 01:42:15;;;;;;;10.60;3.70;;;;;;;6.58;85.52;100169.51;105041;1274;63030;-73
2022/04/25 01:44:42;;;;;;;7.70;3.60;;;;;;;6.57;85.62;100168.70;105139;1276;61589;-73
2022/04/25 01:47:09;;;;;;;5.40;2.70;;;;;;;6.57;85.57;100169.92;104933;1276;76239;-73
2022/04/25 01:49:36;;;;;;;8.20;3.60;;;;;;;6.58;85.63;100170.55;105097;1276;72667;-70
2022/04/25 01:52:27;;;;;;;6.10;3.50;;;;;;;6.60;85.65;100174.88;104932;1276;73970;-72
2022/04/25 01:54:53;;;;;;;6.10;3.60;;;;;;;6.60;85.66;100173.95;105019;1274;61372;-73
2022/04/25 01:57:20;;;;;;;4.90;2.70;;;;;;;6.61;85.58;100176.33;104905;1276;61218;-71
2022/04/25 01:59:47;;;;;;;6.70;4.20;;;;;;;6.62;85.59;100176.98;104957;1276;76436;-71
2022/04/25 02:02:14;;;;;;;5.20;2.70;;;;;;;6.63;85.64;100173.69;104989;1276;72753;-71
2022/04/25 02:04:41;;;;;;;8.40;4.30;;;;;;;6.62;85.96;100174.45;104970;1276;72779;-72
2022/04/25 02:07:10;;;;;;;7.20;3.20;;;;;;;6.63;85.72;100172.64;105079;1274;61509;-72
2022/04/25 02:09:37;;;;;;;5.90;3.30;;;;;;;6.64;85.88;100169.39;105094;1274;61396;-72
2022/04/25 02:12:06;;;;;;;8.50;4.00;;;;;;;6.62;86.32;100171.13;104945;1276;74889;-70
2022/04/25 02:14:33;;;;;;;8.10;3.50;;;;;;;6.61;86.25;100169.11;104975;1276;72585;-72
2022/04/25 02:17:01;;;;;;;8.80;2.90;;;;;;;6.61;86.25;100168.80;104929;1276;72955;-71
2022/04/25 02:19:29;;;;;;;8.10;3.00;;;;;;;6.61;86.47;100167.72;104866;1276;62698;-72
2022/04/25 02:21:56;;;;;;;8.90;4.30;;;;;;;6.59;87.21;100169.15;104934;1276;61787;-70
2022/04/25 02:24:23;;;;;;;6.20;3.40;;;;;;;6.59;86.89;100175.73;105206;1276;75025;-71
2022/04/25 02:26:50;;;;;;;5.20;3.40;;;;;;;6.58;87.01;100173.81;104972;1276;70370;-72
2022/04/25 02:29:20;;;;;;;8.50;4.40;;;;;;;6.59;86.90;100174.11;105002;1276;73301;-72
2022/04/25 02:31:46;;;;;;;6.10;3.50;;;;;;;6.60;86.93;100177.02;104886;1276;61520;-73
2022/04/25 02:34:14;;;;;;;8.40;4.90;;;;;;;6.61;87.17;100176.02;104937;1276;61276;-71
2022/04/25 02:36:40;;;;;;;9.10;4.30;;;;;;;6.62;87.00;100176.63;104940;1276;77117;-72
2022/04/25 02:39:07;;;;;;;5.80;3.20;;;;;;;6.63;87.14;100183.00;105005;1274;71437;-71
2022/04/25 02:41:33;;;;;;;6.40;3.10;;;;;;;6.62;87.21;100185.34;104904;1276;73741;-73
2022/04/25 02:44:00;;;;;;;6.30;3.10;;;;;;;6.62;87.05;100186.64;104971;1276;61362;-71
2022/04/25 02:46:27;;;;;;;5.70;2.50;;;;;;;6.62;87.37;100188.25;104941;1276;61201;-73
2022/04/25 02:48:53;;;;;;;6.20;2.60;;;;;;;6.60;87.70;100189.64;105021;1274;75076;-70
2022/04/25 02:51:35;;;;;;;5.10;3.20;;;;;;;6.59;87.65;100183.46;104981;1276;61231;-73
2022/04/25 02:54:03;;;;;;;6.70;3.60;;;;;;;6.58;87.70;100187.77;104985;1276;72929;-73
2022/04/25 02:56:29;;;;;;;5.50;2.90;;;;;;;6.57;87.66;100183.98;104900;1276;62778;-70
2022/04/25 02:58:56;;;;;;;5.20;2.90;;;;;;;6.57;87.99;100182.05;105112;1274;60476;-71
2022/04/25 03:01:32;;;;;;;7.10;3.70;;;;;;;6.56;88.20;100183.02;104973;1276;76133;-70
2022/04/25 03:03:59;;;;;;;6.40;3.30;;;;;;;6.55;88.27;100178.92;104853;1276;70582;-73
2022/04/25 03:06:26;;;;;;;5.90;3.50;;;;;;;6.53;88.39;100184.85;104910;1276;74554;-73
2022/04/25 03:08:53;;;;;;;7.90;3.60;;;;;;;6.52;88.44;100192.35;104948;1276;61277;-71
2022/04/25 03:11:22;;;;;;;8.20;3.60;;;;;;;6.51;88.26;100190.92;104941;1276;61619;-74
2022/04/25 03:13:49;;;;;;;7.00;3.50;;;;;;;6.51;88.42;100188.79;104941;1276;74315;-73
2022/04/25 03:16:22;;;;;;;6.30;3.60;;;;;;;6.48;88.75;100188.72;104980;1276;71529;-72
2022/04/25 03:18:49;;;;;;;7.90;2.40;;;;;;;6.46;88.78;100191.61;104838;1276;72952;-73
2022/04/25 03:21:19;;;;;;;6.80;3.60;;;;;;;6.42;89.04;100191.43;104859;1276;62445;-72
2022/04/25 03:23:46;;;;;;;7.60;3.40;;;;;;;6.40;89.02;100191.04;104921;1274;61256;-72
2022/04/25 03:26:29;;;;;;;7.00;4.00;;;;;;;6.38;89.11;100192.14;104888;1277;76322;-71
2022/04/25 03:28:55;;;;;;;5.80;3.50;;;;;;;6.34;89.14;100197.20;105158;1274;72491;-71
2022/04/25 03:31:25;;;;;;;8.90;4.00;;;;;;;6.33;89.07;100198.88;104913;1276;72970;-72
2022/04/25 03:33:51;;;;;;;6.00;3.40;;;;;;;6.33;89.07;100201.88;104976;1276;61250;-71
2022/04/25 03:36:18;;;;;;;6.10;3.70;;;;;;;6.33;89.28;100201.58;104922;1276;61372;-71
2022/04/25 03:38:44;;;;;;;7.10;3.10;;;;;;;6.32;89.19;100203.53;104998;1274;61250;-72
2022/04/25 03:41:23;;;;;;;8.60;4.20;;;;;;;6.32;89.25;100202.89;104846;1276;62537;-71
2022/04/25 03:43:50;;;;;;;6.40;3.00;;;;;;;6.32;89.30;100203.09;104928;1275;74165;-72
2022/04/25 03:46:30;;;;;;;6.00;3.40;;;;;;;6.30;89.44;100205.52;104888;1276;61324;-73
2022/04/25 03:48:57;;;;;;;5.60;3.70;;;;;;;6.30;89.23;100209.11;105212;1274;61204;-71
2022/04/25 03:51:24;;;;;;;7.40;3.80;;;;;;;6.29;89.31;100211.27;105126;1274;61365;-70
2022/04/25 03:53:50;;;;;;;5.30;2.60;;;;;;;6.29;89.23;100214.63;104968;1276;61269;-72
2022/04/25 03:59:08;;;;;;;6.10;3.70;;;;;;;6.28;89.44;100221.29;104889;1275;62439;-70
2022/04/25 04:01:36;;;;;;;7.00;3.10;;;;;;;6.27;89.30;100223.23;104998;1276;61252;-73
2022/04/25 04:04:05;;;;;;;6.80;3.70;;;;;;;6.28;89.42;100221.45;105059;1276;74965;-72
2022/04/25 04:06:32;;;;;;;10.10;3.70;;;;;;;6.28;89.33;100224.17;105318;1274;71193;-70
2022/04/25 04:09:44;;;;;;;6.30;3.40;;;;;;;6.30;89.25;100228.73;105999;1274;72971;-71
2022/04/25 04:11:46;;;;;;;5.90;2.60;;;;;;;6.31;89.30;100229.48;105345;1276;61286;-71
2022/04/25 04:14:13;;;;;;;8.50;4.20;;;;;;;6.31;89.47;100232.45;105283;1275;61248;-71
2022/04/25 04:16:39;;;;;;;7.50;3.80;;;;;;;6.31;89.36;100233.60;105319;1276;61438;-71
2022/04/25 04:19:29;;;;;;;8.10;4.00;;;;;;;6.29;89.62;100236.62;105170;1276;71494;-75
2022/04/25 04:22:29;;;;;;;7.90;3.20;;;;;;;6.21;89.58;100229.85;104942;1274;72391;-77
2022/04/25 04:25:12;;;;;;;6.40;3.70;;;;;;;6.25;89.73;100237.73;105018;1275;61270;-73
2022/04/25 04:27:43;;;;;;;7.60;4.30;;;;;;;6.23;89.87;100239.45;105058;1276;61356;-72
2022/04/25 04:30:11;;;;;;;8.50;4.50;;;;;;;6.23;90.07;100238.98;104980;1276;75245;-73
2022/04/25 04:32:40;;;;;;;10.20;4.90;;;;;;;6.24;90.08;100243.75;104937;1276;72230;-74
2022/04/25 04:35:12;;;;;;;6.30;3.90;;;;;;;6.26;90.05;100247.23;104925;1276;73575;-72
2022/04/25 04:37:39;;;;;;;6.70;3.00;;;;;;;6.29;89.72;100248.34;105013;1276;62809;-72
2022/04/25 04:42:54;;;;;;;6.00;2.70;;;;;;;6.36;89.46;100251.67;105068;1276;76047;-72
2022/04/25 04:45:27;;;;;;;8.00;3.60;;;;;;;6.38;89.44;100252.58;105107;1276;72502;-75
2022/04/25 04:47:54;;;;;;;7.70;3.80;;;;;;;6.40;89.23;100254.07;105011;1274;72976;-74
2022/04/25 04:50:21;;;;;;;8.20;3.80;;;;;;;6.43;88.93;100261.31;104906;1275;61365;-76
2022/04/25 04:52:50;;;;;;;7.30;2.90;;;;;;;6.46;88.93;100265.55;104944;1276;61331;-79
2022/04/25 04:55:17;;;;;;;8.90;3.20;;;;;;;6.48;88.89;100276.10;105002;1276;75980;-76
2022/04/25 04:57:44;;;;;;;6.00;3.60;;;;;;;6.48;88.84;100277.78;104834;1276;72164;-74
2022/04/25 05:00:16;;;;;;;6.60;3.20;;;;;;;6.49;88.90;100277.39;105065;1276;73759;-76
2022/04/25 05:02:44;;;;;;;4.90;3.10;;;;;;;6.49;88.98;100280.72;105188;1276;62674;-75
2022/04/25 05:05:12;;;;;;;6.40;3.80;;;;;;;6.47;89.29;100282.27;105082;1276;61270;-76
2022/04/25 05:07:39;;;;;;;5.30;3.60;;;;;;;6.45;89.53;100289.13;104878;1276;74897;-74
2022/04/25 05:10:07;;;;;;;4.20;2.20;;;;;;;6.43;89.80;100289.45;104894;1277;72433;-75
2022/04/25 05:12:49;;;;;;;5.50;2.90;;;;;;;6.42;90.03;100290.73;105023;1277;74069;-79
2022/04/25 05:15:18;;;;;;;5.90;3.30;;;;;;;6.39;90.17;100290.85;105035;1276;62418;-75
2022/04/25 05:17:48;;;;;;;5.50;3.80;;;;;;;6.36;90.44;100293.50;105271;1275;61182;-77
2022/04/25 05:20:17;;;;;;;6.80;4.00;;;;;;;6.32;90.70;100296.86;105124;1276;74770;-74
2022/04/25 05:22:45;;;;;;;6.40;3.60;;;;;;;6.30;90.82;100301.39;105062;1273;72747;-75
2022/04/25 05:25:14;;;;;;;5.40;3.20;;;;;;;6.30;91.10;100300.58;105158;1276;71959;-73
2022/04/25 05:27:42;;;;;;;7.70;3.50;;;;;;;6.29;91.51;100306.13;105236;1274;62754;-80
2022/04/25 05:30:10;;;;;;;8.70;3.60;;;;;;;6.30;91.56;100311.15;105404;1274;61138;-75
2022/04/25 05:32:46;;;;;;;5.00;2.90;;;;;;;6.29;92.11;100309.40;105275;1275;74933;-77
2022/04/25 05:35:14;;;;;;;6.60;3.90;;;;;;;6.28;92.57;100310.66;105064;1276;71529;-74
2022/04/25 05:37:42;;;;;;;7.10;3.60;;;;;;;6.27;92.27;100317.60;104943;1276;74648;-77
2022/04/25 05:40:11;;;;;;;10.40;4.30;;;;;;;6.27;92.60;100315.10;105180;1276;61381;-77
2022/04/25 05:42:40;;;;;;;5.40;3.60;;;;;;;6.29;92.39;100315.29;106024;1276;61373;-74
2022/04/25 05:45:09;;;;;;;7.60;4.20;;;;;;;6.30;92.62;100313.95;105155;1276;77552;-74
2022/04/25 05:47:37;;;;;;;8.80;5.40;;;;;;;6.30;92.66;100314.25;105826;1276;72460;-77
2022/04/25 05:56:32;;;;;;;5.70;2.80;;;;;;;6.37;92.97;100321.26;105056;1276;61188;-78
2022/04/25 05:58:59;;;;;;;8.30;3.20;;;;;;;6.40;93.16;100325.20;104904;1276;75939;-78
2022/04/25 06:01:25;;;;;;;7.10;3.90;;;;;;;6.42;93.34;100327.48;104995;1276;61237;-74
2022/04/25 06:03:52;;;;;;;8.50;4.00;;;;;;;6.43;93.45;100325.05;104822;1276;72017;-73
2022/04/25 06:06:21;;;;;;;4.80;2.90;;;;;;;6.44;93.26;100323.90;104898;1276;61372;-74
2022/04/25 06:08:48;;;;;;;12.70;5.60;;;;;;;6.44;93.60;100321.92;104897;1276;61252;-74
2022/04/25 06:11:15;;;;;;;9.10;3.90;;;;;;;6.46;93.60;100325.30;104885;1276;75947;-75
2022/04/25 06:13:44;;;;;;;11.50;5.60;;;;;;;6.47;93.84;100324.94;104951;1276;71451;-76
2022/04/25 06:16:11;;;;;;;4.20;2.90;;;;;;;6.51;93.85;100327.52;105535;1276;73954;-76
2022/04/25 06:18:38;;;;;;;11.10;3.60;;;;;;;6.53;94.01;100333.30;104883;1276;61279;-75
2022/04/25 06:21:05;;;;;;;5.40;2.70;;;;;;;6.56;93.91;100339.77;105002;1276;61384;-75
2022/04/25 06:23:35;;;;;;;5.30;2.20;;;;;;;6.54;93.61;100340.79;104887;1276;61221;-79
2022/04/25 06:26:01;;;;;;;10.30;6.20;;;;;;;6.52;93.55;100345.58;104910;1276;72387;-77
2022/04/25 06:28:30;;;;;;;6.00;3.60;;;;;;;6.52;93.84;100343.75;104918;1276;71728;-76
2022/04/25 06:30:58;;;;;;;11.20;6.90;;;;;;;6.53;93.78;100346.71;105014;1276;62150;-76
2022/04/25 06:33:26;;;;;;;7.20;4.10;;;;;;;6.52;93.84;100348.35;105518;1276;61319;-76
2022/04/25 06:35:53;;;;;;;6.00;3.70;;;;;;;6.52;93.59;100350.08;105112;1276;74852;-78
2022/04/25 06:38:23;;;;;;;15.00;6.70;;;;;;;6.53;93.61;100350.23;105355;1276;72257;-79
2022/04/25 06:40:49;;;;;;;6.70;3.20;;;;;;;6.53;93.53;100356.16;105588;1275;74822;-78
2022/04/25 06:43:16;;;;;;;6.40;3.40;;;;;;;6.53;93.62;100363.94;105460;1274;61476;-78
2022/04/25 06:45:43;;;;;;;6.50;3.60;;;;;;;6.54;93.56;100363.84;105084;1276;61206;-78
2022/04/25 06:48:10;;;;;;;4.70;3.10;;;;;;;6.54;93.69;100358.90;105102;1277;73606;-76
2022/04/25 06:50:37;;;;;;;6.90;4.70;;;;;;;6.57;93.63;100364.27;105220;1276;72419;-75
2022/04/25 06:53:06;;;;;;;8.10;3.50;;;;;;;6.58;93.71;100358.85;104988;1276;73096;-79
2022/04/25 06:55:34;;;;;;;4.30;2.30;;;;;;;6.57;93.69;100363.33;105406;1277;61277;-78
2022/04/25 06:58:00;;;;;;;6.40;3.00;;;;;;;6.57;93.80;100369.84;105246;1276;61917;-79
2022/04/25 07:00:27;;;;;;;9.70;4.20;;;;;;;6.56;93.82;100373.46;105434;1276;73952;-76
2022/04/25 07:03:02;;;;;;;;;;;;;;;6.57;94.07;100377.06;104919;1276;71404;-79
2022/04/25 07:05:29;;;;;;;6.50;3.40;;;;;;;6.58;94.18;100377.49;105063;1276;73272;-76
2022/04/25 07:07:56;;;;;;;5.80;3.00;;;;;;;6.60;94.23;100384.00;105325;1276;62352;-77
2022/04/25 07:10:22;;;;;;;5.20;3.10;;;;;;;6.63;94.75;100379.63;105019;1275;60448;-78
2022/04/25 07:12:49;;;;;;;4.10;2.30;;;;;;;6.67;94.85;100376.34;105432;1276;74629;-78
2022/04/25 07:15:16;;;;;;;17.20;9.00;;;;;;;6.72;94.45;100380.60;105357;1276;71870;-77
2022/04/25 07:17:42;;;;;;;7.30;3.60;;;;;;;6.77;94.26;100381.71;105259;1277;74245;-75
2022/04/25 07:20:09;;;;;;;8.40;3.80;;;;;;;6.80;93.79;100384.02;104887;1275;61275;-75
2022/04/25 07:30:52;;;;;;;4.80;3.10;;;;;;;6.87;93.24;100389.10;104976;1276;72720;-76
2022/04/25 07:33:19;;;;;;;4.90;2.80;;;;;;;6.87;93.03;100391.15;104942;1276;61475;-73
2022/04/25 07:35:46;;;;;;;6.70;3.90;;;;;;;6.90;92.86;100395.81;104944;1276;61359;-76
2022/04/25 07:38:12;;;;;;;7.80;3.60;;;;;;;6.91;93.11;100394.66;104898;1275;74333;-75
2022/04/25 07:40:41;;;;;;;5.90;3.80;;;;;;;6.91;92.92;100398.65;105128;1274;72374;-76
2022/04/25 07:43:08;;;;;;;6.40;3.40;;;;;;;6.93;92.85;100397.96;104924;1277;72883;-77
2022/04/25 07:45:34;;;;;;;6.70;3.70;;;;;;;6.94;92.96;100399.55;105590;1276;62366;-77
2022/04/25 07:48:01;;;;;;;6.40;2.90;;;;;;;6.98;92.91;100403.79;105080;1274;61311;-76
2022/04/25 07:50:27;;;;;;;6.20;3.30;;;;;;;7.01;92.77;100408.54;104976;1275;61176;-75
2022/04/25 07:52:54;;;;;;;5.30;3.60;;;;;;;7.01;92.67;100411.70;104911;1276;61596;-76
2022/04/25 07:55:21;;;;;;;8.50;3.60;;;;;;;7.03;92.38;100409.48;104834;1276;72930;-75
2022/04/25 07:57:47;;;;;;;7.30;4.20;;;;;;;7.05;92.06;100409.19;104954;1276;62254;-77
2022/04/25 08:00:15;;;;;;;8.40;4.00;;;;;;;7.13;92.20;100411.36;104876;1274;61676;-75
2022/04/25 08:02:41;;;;;;;5.50;3.40;;;;;;;7.26;92.20;100411.48;104921;1276;74868;-74
2022/04/25 08:05:09;;;;;;;5.40;3.70;;;;;;;7.42;92.07;100411.91;104926;1276;71485;-76
2022/04/25 08:07:36;;;;;;;6.50;4.00;;;;;;;7.59;91.86;100415.54;105052;1275;74530;-73
2022/04/25 08:10:06;;;;;;;7.10;3.50;;;;;;;7.75;91.08;100414.02;104794;1276;61299;-74
2022/04/25 08:18:06;;;;;;;8.00;3.50;;;;;;;8.20;88.87;100422.75;105023;1277;71882;-77
2022/04/25 08:20:36;;;;;;;6.70;3.20;;;;;;;8.34;88.22;100423.33;104898;1276;72820;-77
2022/04/25 08:23:10;;;;;;;5.70;4.00;;;;;;;8.44;87.20;100424.01;104911;1276;63297;-74
2022/04/25 08:25:38;;;;;;;7.20;3.60;;;;;;;8.53;86.93;100424.78;104987;1276;61138;-73
2022/04/25 08:28:05;;;;;;;5.20;2.70;;;;;;;8.66;86.69;100425.33;104953;1274;74363;-77
2022/04/25 08:30:32;;;;;;;8.20;3.80;;;;;;;8.78;85.64;100431.81;105023;1274;71552;-79
2022/04/25 08:33:00;;;;;;;32.50;18.60;;;;;;;8.90;85.23;100435.41;104889;1277;72850;-80
2022/04/25 08:35:28;;;;;;;7.80;4.20;;;;;;;8.99;84.45;100438.84;105120;1274;62146;-77
2022/04/25 08:37:55;;;;;;;8.00;4.20;;;;;;;9.03;83.99;100438.21;104892;1276;61289;-76
2022/04/25 08:40:22;;;;;;;6.70;3.40;;;;;;;9.01;83.20;100440.27;104936;1274;74302;-76
2022/04/25 08:42:48;;;;;;;7.80;4.20;;;;;;;9.02;83.94;100442.97;104974;1276;71557;-75
2022/04/25 08:45:15;;;;;;;6.20;3.60;;;;;;;9.01;83.50;100448.00;104937;1278;61357;-74
2022/04/25 08:47:58;;;;;;;10.40;4.30;;;;;;;8.97;83.43;100449.80;105031;1274;62512;-74
2022/04/25 08:50:27;;;;;;;7.90;3.90;;;;;;;8.95;83.38;100454.56;104994;1277;61350;-75
2022/04/25 08:52:56;;;;;;;8.10;3.70;;;;;;;8.95;83.08;100452.62;104925;1276;76009;-73
2022/04/25 08:55:24;;;;;;;6.70;4.00;;;;;;;8.95;82.93;100457.08;104887;1277;73991;-75
2022/04/25 08:57:51;;;;;;;6.00;3.60;;;;;;;8.95;82.90;100459.00;104943;1274;74067;-74
2022/04/25 09:00:18;;;;;;;6.10;3.20;;;;;;;8.93;82.73;100463.23;104964;1277;61716;-75
2022/04/25 09:02:47;;;;;;;6.80;4.30;;;;;;;8.93;82.72;100466.31;104986;1276;61293;-76
2022/04/25 09:05:14;;;;;;;7.50;3.80;;;;;;;8.94;83.08;100473.02;105059;1276;75022;-75
2022/04/25 09:07:42;;;;;;;7.60;4.80;;;;;;;8.94;82.57;100477.05;104893;1277;71062;-73
2022/04/25 09:10:11;;;;;;;9.50;4.10;;;;;;;8.92;82.74;100482.70;104948;1275;74075;-73
2022/04/25 09:12:41;;;;;;;6.20;3.10;;;;;;;8.87;82.73;100483.73;104820;1278;62768;-73
2022/04/25 09:15:23;;;;;;;8.00;3.80;;;;;;;8.72;83.09;100488.15;104961;1276;61354;-76
2022/04/25 09:17:54;;;;;;;8.30;4.70;;;;;;;8.57;83.48;100489.40;104907;1277;74864;-77
2022/04/25 09:20:23;;;;;;;6.50;4.40;;;;;;;8.53;84.39;100495.52;104986;1277;70265;-73
2022/04/25 09:22:50;;;;;;;8.20;5.20;;;;;;;8.52;84.29;100499.35;104957;1275;74187;-75
2022/04/25 09:25:18;;;;;;;8.30;4.90;;;;;;;8.52;84.37;100498.59;104943;1274;62397;-75
2022/04/25 09:28:13;;;;;;;10.50;5.00;;;;;;;8.49;84.10;100492.04;104928;1276;61246;-75
2022/04/25 09:31:00;;;;;;;9.30;5.20;;;;;;;8.53;84.50;100501.16;104969;1278;74470;-75
2022/04/25 09:33:27;;;;;;;11.00;5.00;;;;;;;8.54;84.41;100502.76;104979;1274;71135;-75
2022/04/25 09:35:58;;;;;;;5.80;3.40;;;;;;;8.57;84.03;100504.10;105045;1277;72999;-76
2022/04/25 09:38:29;;;;;;;6.50;3.30;;;;;;;8.64;83.80;100506.63;104978;1277;61911;-75
2022/04/25 09:40:56;;;;;;;6.80;3.70;;;;;;;8.77;83.59;100507.74;104392;1276;754653;-76
2022/04/25 09:43:29;;;;;;;6.60;3.70;;;;;;;8.89;82.71;100509.58;104983;1277;61374;-75
2022/04/25 09:46:06;;;;;;;6.80;3.20;;;;;;;9.00;82.71;100509.98;105217;1275;71357;-73
2022/04/25 09:48:33;;;;;;;7.40;3.70;;;;;;;9.05;81.91;100512.64;105036;1277;73991;-76
2022/04/25 09:51:10;;;;;;;4.70;3.40;;;;;;;9.08;82.40;100512.08;104874;1278;62453;-75
2022/04/25 09:53:52;;;;;;;6.10;3.40;;;;;;;9.10;81.87;100509.40;104930;1277;61250;-73
2022/04/25 09:56:24;;;;;;;4.20;2.80;;;;;;;9.07;81.72;100508.38;105096;1277;75877;-75
2022/04/25 09:59:18;;;;;;;8.20;4.40;;;;;;;9.05;81.98;100512.12;104968;1277;71396;-77
2022/04/25 10:01:45;;;;;;;8.10;4.10;;;;;;;9.04;82.04;100513.95;105205;1275;73017;-79
2022/04/25 10:04:31;;;;;;;7.10;3.40;;;;;;;9.06;82.25;100514.80;105002;1274;62373;-75
2022/04/25 10:07:03;;;;;;;7.10;4.10;;;;;;;9.11;82.50;100516.21;104987;1277;61361;-75
2022/04/25 10:09:31;;;;;;;8.70;3.30;;;;;;;9.16;82.09;100519.63;105022;1276;76040;-75
2022/04/25 10:12:02;;;;;;;8.10;4.50;;;;;;;9.21;81.93;100522.53;105077;1276;72445;-75
2022/04/25 10:14:29;;;;;;;7.90;4.50;;;;;;;9.22;81.49;100525.00;105126;1274;74884;-74
2022/04/25 10:16:57;;;;;;;7.60;3.60;;;;;;;9.26;81.16;100528.43;105027;1275;63123;-75
2022/04/25 10:19:25;;;;;;;4.90;3.40;;;;;;;9.31;81.45;100531.55;105024;1276;61350;-75
2022/04/25 10:21:54;;;;;;;7.20;3.60;;;;;;;9.37;80.87;100526.01;104971;1277;74566;-76
2022/04/25 10:24:22;;;;;;;6.90;3.90;;;;;;;9.30;79.45;100531.13;105107;1274;72392;-75
2022/04/25 10:26:51;;;;;;;8.00;3.40;;;;;;;9.29;80.66;100535.48;105018;1275;72941;-75
2022/04/25 10:29:26;;;;;;;10.40;3.80;;;;;;;9.31;81.08;100538.60;105158;1277;62328;-73
2022/04/25 10:32:00;;;;;;;6.10;3.70;;;;;;;9.33;81.01;100538.77;105074;1274;62040;-74
2022/04/25 10:34:51;;;;;;;5.10;3.80;;;;;;;9.36;80.90;100541.47;105158;1277;74732;-74
2022/04/25 10:37:48;;;;;;;10.80;5.40;;;;;;;9.41;81.01;100542.11;104862;1278;72197;-75
2022/04/25 10:44:10;;;;;;;6.70;3.40;;;;;;;9.51;80.78;100542.98;104945;1275;72944;-73
2022/04/25 10:46:00;;;;;;;5.90;3.50;;;;;;;9.75;79.19;100548.20;105033;1276;61352;-74
2022/04/25 10:48:28;;;;;;;7.40;2.80;;;;;;;9.88;79.10;100544.13;105127;1276;76312;-74
2022/04/25 10:51:12;;;;;;;5.00;3.20;;;;;;;9.97;78.61;100546.27;105233;1274;71405;-72
2022/04/25 10:53:59;;;;;;;6.10;3.20;;;;;;;10.09;78.37;100546.11;105263;1276;74226;-73
2022/04/25 10:56:27;;;;;;;6.40;3.80;;;;;;;10.21;77.92;100546.38;105331;1277;63252;-73
2022/04/25 10:59:28;;;;;;;6.80;3.50;;;;;;;10.34;77.67;100548.67;105421;1277;61263;-72
2022/04/25 11:01:58;;;;;;;7.30;3.80;;;;;;;10.47;76.73;100550.27;104976;1276;75111;-72
2022/04/25 11:04:26;;;;;;;4.10;2.80;;;;;;;10.48;75.95;100550.11;104989;1275;72095;-73
2022/04/25 11:07:20;;;;;;;10.80;7.40;;;;;;;10.53;76.46;100554.02;104933;1276;71824;-75
2022/04/25 11:09:47;;;;;;;7.10;3.80;;;;;;;10.73;76.14;100555.55;105179;1275;61240;-73
2022/04/25 11:12:14;;;;;;;4.00;2.80;;;;;;;10.92;75.69;100557.23;104965;1276;61340;-72
2022/04/25 11:14:57;;;;;;;6.90;3.20;;;;;;;11.02;74.05;100562.20;104913;1277;76442;-74
2022/04/25 11:17:23;;;;;;;6.50;4.00;;;;;;;11.07;73.87;100562.80;104923;1277;71480;-72
2022/04/25 11:19:54;;;;;;;5.30;3.00;;;;;;;11.18;73.89;100560.89;105017;1275;73975;-74
2022/04/25 11:22:36;;;;;;;6.50;3.00;;;;;;;11.25;72.98;100562.73;105049;1275;62892;-73
2022/04/25 11:25:25;;;;;;;5.40;3.20;;;;;;;11.32;72.69;100563.45;104947;1275;61177;-74
2022/04/25 11:28:05;;;;;;;5.40;3.60;;;;;;;11.37;71.70;100566.51;104941;1275;75714;-74
2022/04/25 11:30:31;;;;;;;5.70;3.60;;;;;;;11.34;71.41;100574.36;105264;1274;71507;-74
2022/04/25 11:33:10;;;;;;;5.60;3.10;;;;;;;11.33;71.48;100576.30;105180;1274;61158;-74
2022/04/25 11:35:39;;;;;;;5.80;3.20;;;;;;;11.22;71.07;100581.70;104989;1276;62032;-74
2022/04/25 11:38:06;;;;;;;6.50;2.60;;;;;;;11.16;71.93;100582.80;105243;1274;61799;-76
2022/04/25 11:40:33;;;;;;;4.00;2.90;;;;;;;11.13;72.06;100584.17;105061;1276;75110;-73
2022/04/25 11:43:03;;;;;;;5.60;2.80;;;;;;;11.12;72.29;100583.02;105009;1274;70736;-72
2022/04/25 11:45:31;;;;;;;3.60;2.10;;;;;;;11.12;72.12;100585.16;104853;1274;73360;-74
2022/04/25 11:48:00;;;;;;;4.50;2.90;;;;;;;11.13;71.79;100587.35;104971;1274;63376;-72
2022/04/25 11:50:28;;;;;;;3.50;2.50;;;;;;;11.15;71.95;100586.65;104866;1276;61338;-73
2022/04/25 11:52:56;;;;;;;9.40;4.20;;;;;;;11.05;70.50;100587.65;105219;1274;73740;-73
2022/04/25 11:55:38;;;;;;;5.60;3.20;;;;;;;10.90;71.12;100585.09;105014;1274;71543;-73
2022/04/25 11:58:05;;;;;;;5.10;2.90;;;;;;;10.92;72.08;100590.23;105009;1275;72853;-74
2022/04/25 12:00:34;;;;;;;9.90;3.60;;;;;;;10.85;70.91;100589.98;105182;1274;62120;-75
2022/04/25 12:03:02;;;;;;;6.10;3.00;;;;;;;10.76;71.21;100594.16;105041;1276;61582;-73
2022/04/25 12:05:31;;;;;;;7.00;4.00;;;;;;;10.73;71.56;100591.17;105068;1277;73936;-74
2022/04/25 12:16:18;;;;;;;9.90;3.80;;;;;;;11.13;72.57;100602.02;105158;1274;61789;-73